createdAt,value
2022-12-09T00:02:14.558Z,4.20
2022-12-09T00:05:02.522Z,4.37
2022-12-09T00:07:50.294Z,5.00
2022-12-09T00:10:38.267Z,5.13
2022-12-09T00:13:25.846Z,4.33
2022-12-09T00:16:15.580Z,4.33
2022-12-09T00:19:03.445Z,4.63
2022-12-09T00:21:51.150Z,3.20
2022-12-09T00:24:39.090Z,3.30
2022-12-09T00:27:27.844Z,4.60
2022-12-09T00:30:15.513Z,3.07
2022-12-09T00:33:02.960Z,3.97
2022-12-09T00:35:50.508Z,4.27
2022-12-09T00:38:39.236Z,3.37
2022-12-09T00:41:27.973Z,3.70
2022-12-09T00:44:15.493Z,3.80
2022-12-09T00:47:03.049Z,4.37
2022-12-09T00:49:50.752Z,2.80
2022-12-09T00:52:38.470Z,4.40
2022-12-09T00:55:26.159Z,2.63
2022-12-09T00:58:14.438Z,4.63
2022-12-09T01:01:02.472Z,4.63
2022-12-09T01:03:50.507Z,3.70
2022-12-09T01:06:38.456Z,4.53
2022-12-09T01:09:26.079Z,4.43
2022-12-09T01:12:13.748Z,4.10
2022-12-09T01:15:01.249Z,5.37
2022-12-09T01:17:48.926Z,4.03
2022-12-09T01:20:36.875Z,4.80
2022-12-09T01:23:24.926Z,4.13
2022-12-09T01:26:13.313Z,4.73
2022-12-09T01:29:00.939Z,4.10
2022-12-09T01:31:48.501Z,5.13
2022-12-09T01:34:36.414Z,3.03
2022-12-09T01:37:24.244Z,4.50
2022-12-09T01:40:17.153Z,2.93
2022-12-09T01:43:04.792Z,4.67
2022-12-09T01:45:52.922Z,4.53
2022-12-09T01:48:46.783Z,5.27
2022-12-09T01:51:37.342Z,5.47
2022-12-09T01:54:25.928Z,6.70
2022-12-09T01:57:14.073Z,7.07
2022-12-09T02:00:02.795Z,6.77
2022-12-09T02:02:52.472Z,5.87
2022-12-09T02:05:40.644Z,7.77
2022-12-09T02:08:28.255Z,6.03
2022-12-09T02:11:40.104Z,6.30
2022-12-09T02:14:58.375Z,7.43
2022-12-09T02:17:55.315Z,4.40
2022-12-09T02:20:54.852Z,7.40
2022-12-09T02:24:00.984Z,6.77
2022-12-09T02:27:15.251Z,7.70
2022-12-09T02:30:23.248Z,7.17
2022-12-09T02:33:35.157Z,5.27
2022-12-09T02:36:30.035Z,7.47
2022-12-09T02:39:26.146Z,6.50
2022-12-09T02:42:19.292Z,6.87
2022-12-09T02:45:11.110Z,5.10
2022-12-09T02:48:02.845Z,5.53
2022-12-09T02:50:53.824Z,6.00
2022-12-09T02:53:45.092Z,6.27
2022-12-09T02:56:35.021Z,3.83
2022-12-09T02:59:23.149Z,3.00
2022-12-09T03:02:37.044Z,3.57
2022-12-09T03:05:35.454Z,2.77
2022-12-09T03:08:56.920Z,3.97
2022-12-09T03:11:47.087Z,3.30
2022-12-09T03:14:52.221Z,3.77
2022-12-09T03:17:45.357Z,4.20
2022-12-09T03:20:40.190Z,4.07
2022-12-09T03:23:31.006Z,3.63
2022-12-09T03:26:20.193Z,4.70
2022-12-09T03:29:18.358Z,4.17
2022-12-09T03:32:06.115Z,4.47
2022-12-09T03:35:09.456Z,3.43
2022-12-09T03:38:00.551Z,3.80
2022-12-09T03:41:09.240Z,3.37
2022-12-09T03:44:30.082Z,3.60
2022-12-09T03:47:17.942Z,3.70
2022-12-09T03:50:08.357Z,4.10
2022-12-09T03:53:16.069Z,2.60
2022-12-09T03:56:09.065Z,3.43
2022-12-09T03:59:02.159Z,2.93
2022-12-09T04:01:50.434Z,2.40
2022-12-09T04:04:42.800Z,3.13
2022-12-09T04:07:30.360Z,2.97
2022-12-09T04:10:18.041Z,2.67
2022-12-09T04:13:05.739Z,3.20
2022-12-09T04:15:53.289Z,3.03
2022-12-09T04:18:40.908Z,3.67
2022-12-09T04:21:28.620Z,3.60
2022-12-09T04:24:16.143Z,3.33
2022-12-09T04:27:03.788Z,2.73
2022-12-09T04:29:51.957Z,3.77
2022-12-09T04:32:40.010Z,2.53
2022-12-09T04:35:28.839Z,4.57
2022-12-09T04:38:16.309Z,3.23
2022-12-09T04:41:04.988Z,3.13
2022-12-09T04:43:52.468Z,3.80
2022-12-09T04:46:40.223Z,2.83
2022-12-09T04:49:28.204Z,3.27
2022-12-09T04:52:19.148Z,2.73
2022-12-09T04:55:07.788Z,2.83
2022-12-09T04:57:55.441Z,3.37
2022-12-09T05:00:43.221Z,3.93
2022-12-09T05:03:30.881Z,3.33
2022-12-09T05:06:20.611Z,3.83
2022-12-09T05:09:13.445Z,3.80
2022-12-09T05:12:01.207Z,2.53
2022-12-09T05:14:49.181Z,3.97
2022-12-09T05:17:36.835Z,2.17
2022-12-09T05:20:29.365Z,3.40
2022-12-09T05:23:17.667Z,3.13
2022-12-09T05:26:09.405Z,2.40
2022-12-09T05:28:57.297Z,2.20
2022-12-09T05:31:44.941Z,3.23
2022-12-09T05:34:32.962Z,3.00
2022-12-09T05:37:20.657Z,3.30
2022-12-09T05:40:09.564Z,2.77
2022-12-09T05:42:57.874Z,3.67
2022-12-09T05:45:46.098Z,3.20
2022-12-09T05:48:34.520Z,2.23
2022-12-09T05:51:28.109Z,3.33
2022-12-09T05:54:16.377Z,2.43
2022-12-09T05:57:04.464Z,2.30
2022-12-09T05:59:52.483Z,2.50
2022-12-09T06:02:40.215Z,2.47
2022-12-09T06:05:28.433Z,2.47
2022-12-09T06:08:16.723Z,2.17
2022-12-09T06:11:05.065Z,2.80
2022-12-09T06:13:54.722Z,2.57
2022-12-09T06:16:42.588Z,2.97
2022-12-09T06:19:30.309Z,3.73
2022-12-09T06:22:17.996Z,2.70
2022-12-09T06:25:06.546Z,3.60
2022-12-09T06:27:54.067Z,3.27
2022-12-09T06:30:42.273Z,1.90
2022-12-09T06:33:53.712Z,2.63
2022-12-09T06:36:37.428Z,2.00
2022-12-09T06:39:25.268Z,2.50
2022-12-09T06:42:13.128Z,2.33
2022-12-09T06:45:00.644Z,2.87
2022-12-09T06:47:49.244Z,2.77
2022-12-09T06:50:37.876Z,4.03
2022-12-09T06:53:25.431Z,2.30
2022-12-09T06:56:15.005Z,3.43
2022-12-09T06:59:08.621Z,2.63
2022-12-09T07:01:56.307Z,3.67
2022-12-09T07:04:44.436Z,2.40
2022-12-09T07:07:33.905Z,3.00
2022-12-09T07:10:21.579Z,2.37
2022-12-09T07:13:09.178Z,2.40
2022-12-09T07:15:56.920Z,3.63
2022-12-09T07:18:44.708Z,2.47
2022-12-09T07:21:34.498Z,3.10
2022-12-09T07:24:22.144Z,2.80
2022-12-09T07:27:19.170Z,3.07
2022-12-09T07:30:08.230Z,2.37
2022-12-09T07:32:56.081Z,2.23
2022-12-09T07:35:44.050Z,2.73
2022-12-09T07:38:31.689Z,2.80
2022-12-09T07:41:19.502Z,3.07
2022-12-09T07:44:07.469Z,3.77
2022-12-09T07:46:56.557Z,3.17
2022-12-09T07:49:44.663Z,2.00
2022-12-09T07:52:32.460Z,2.00
2022-12-09T07:55:20.921Z,2.67
2022-12-09T07:58:08.918Z,2.90
2022-12-09T08:00:57.225Z,2.30
2022-12-09T08:03:47.369Z,2.70
2022-12-09T08:06:37.074Z,2.27
2022-12-09T08:09:24.988Z,1.50
2022-12-09T08:12:13.139Z,2.07
2022-12-09T08:15:01.546Z,3.00
2022-12-09T08:17:49.532Z,3.37
2022-12-09T08:20:38.581Z,2.67
2022-12-09T08:23:27.058Z,2.90
2022-12-09T08:26:18.480Z,3.83
2022-12-09T08:29:12.946Z,2.50
2022-12-09T08:32:00.862Z,2.80
2022-12-09T08:34:48.919Z,3.23
2022-12-09T08:37:36.479Z,2.57
2022-12-09T08:40:24.601Z,3.27
2022-12-09T08:43:12.225Z,2.23
2022-12-09T08:46:01.079Z,3.50
2022-12-09T08:48:49.046Z,3.07
2022-12-09T08:51:38.190Z,2.50
2022-12-09T08:54:26.274Z,2.50
2022-12-09T08:57:14.157Z,4.07
2022-12-09T09:00:02.503Z,3.73
2022-12-09T09:02:50.127Z,2.53
2022-12-09T09:05:38.259Z,2.43
2022-12-09T09:08:25.983Z,3.07
2022-12-09T09:11:19.984Z,3.63
2022-12-09T09:14:10.886Z,3.33
2022-12-09T09:16:59.342Z,1.97
2022-12-09T09:19:47.192Z,2.63
2022-12-09T09:22:35.434Z,2.23
2022-12-09T09:25:23.004Z,2.20
2022-12-09T09:28:11.239Z,2.67
2022-12-09T09:31:06.407Z,1.90
2022-12-09T09:33:54.279Z,2.47
2022-12-09T09:36:42.385Z,2.33
2022-12-09T09:39:30.683Z,3.40
2022-12-09T09:42:29.701Z,1.93
2022-12-09T09:45:23.406Z,3.20
2022-12-09T09:48:19.978Z,2.63
2022-12-09T09:51:18.482Z,3.30
2022-12-09T09:54:09.291Z,3.10
2022-12-09T09:57:07.032Z,2.57
2022-12-09T10:00:00.724Z,2.90
2022-12-09T10:03:00.091Z,3.53
2022-12-09T10:05:58.925Z,3.90
2022-12-09T10:09:50.044Z,1.97
2022-12-09T10:13:23.914Z,3.00
2022-12-09T10:16:23.013Z,2.03
2022-12-09T10:19:24.595Z,2.43
2022-12-09T10:22:24.708Z,3.33
2022-12-09T10:25:25.231Z,2.33
2022-12-09T10:28:45.093Z,3.50
2022-12-09T10:31:33.626Z,3.23
2022-12-09T10:34:21.264Z,3.73
2022-12-09T10:37:25.940Z,3.13
2022-12-09T10:40:56.463Z,2.93
2022-12-09T10:43:44.698Z,2.37
2022-12-09T10:46:33.269Z,4.00
2022-12-09T10:49:22.896Z,2.63
2022-12-09T10:52:10.684Z,3.70
2022-12-09T10:54:58.868Z,2.77
2022-12-09T10:57:46.578Z,3.13
2022-12-09T11:00:35.189Z,3.67
2022-12-09T11:03:36.257Z,3.00
2022-12-09T11:06:37.279Z,3.30
2022-12-09T11:09:35.495Z,3.53
2022-12-09T11:12:34.837Z,3.47
2022-12-09T11:15:52.025Z,2.73
2022-12-09T11:18:48.383Z,2.83
2022-12-09T11:21:37.356Z,2.97
2022-12-09T11:24:26.903Z,3.80
2022-12-09T11:27:34.072Z,4.07
2022-12-09T11:30:30.972Z,3.27
2022-12-09T11:33:35.954Z,3.07
2022-12-09T11:36:44.094Z,3.43
2022-12-09T11:39:35.723Z,3.33
2022-12-09T11:42:24.884Z,3.50
2022-12-09T11:45:29.869Z,3.40
2022-12-09T11:48:40.094Z,3.50
2022-12-09T11:51:37.570Z,4.03
2022-12-09T11:54:40.395Z,3.20
2022-12-09T11:57:52.782Z,3.47
2022-12-09T12:01:13.045Z,3.53
2022-12-09T12:04:09.400Z,2.67
2022-12-09T12:07:09.973Z,3.50
2022-12-09T12:09:59.249Z,4.00
2022-12-09T12:13:18.790Z,4.17
2022-12-09T12:16:26.574Z,4.10
2022-12-09T12:19:37.696Z,2.93
2022-12-09T12:23:11.853Z,3.37
2022-12-09T12:26:06.334Z,4.10
2022-12-09T12:29:55.261Z,4.23
2022-12-09T12:34:00.453Z,4.40
2022-12-09T12:36:52.525Z,3.27
2022-12-09T12:40:15.293Z,3.10
2022-12-09T12:43:56.209Z,3.60
2022-12-09T12:47:16.716Z,3.90
2022-12-09T12:50:30.984Z,3.03
2022-12-09T12:53:52.944Z,3.27
2022-12-09T12:57:11.134Z,3.50
2022-12-09T13:00:16.304Z,4.57
2022-12-09T13:03:26.109Z,2.70
2022-12-09T13:06:20.699Z,4.47
2022-12-09T13:09:25.995Z,3.83
2022-12-09T13:12:50.630Z,6.13
2022-12-09T13:15:46.481Z,4.87
2022-12-09T13:18:40.074Z,5.37
2022-12-09T13:21:27.690Z,4.77
2022-12-09T13:24:49.585Z,5.40
2022-12-09T13:28:00.885Z,4.33
2022-12-09T13:31:01.059Z,4.17
2022-12-09T13:34:04.398Z,5.67
2022-12-09T13:36:51.973Z,4.73
2022-12-09T13:39:42.468Z,5.20
2022-12-09T13:42:48.109Z,5.50
2022-12-09T13:45:42.893Z,5.07
2022-12-09T13:48:30.405Z,4.60
2022-12-09T13:51:18.866Z,4.90
2022-12-09T13:54:07.400Z,5.90
2022-12-09T13:57:41.444Z,4.53
2022-12-09T14:00:29.561Z,4.17
2022-12-09T14:03:50.543Z,4.97
2022-12-09T14:07:11.438Z,3.67
2022-12-09T14:10:00.300Z,4.70
2022-12-09T14:12:57.378Z,3.37
2022-12-09T14:15:46.563Z,4.40
2022-12-09T14:18:35.493Z,4.50
2022-12-09T14:21:30.976Z,5.17
2022-12-09T14:24:21.487Z,5.77
2022-12-09T14:27:35.023Z,3.90
2022-12-09T14:30:34.601Z,3.60
2022-12-09T14:33:32.128Z,5.23
2022-12-09T14:36:23.488Z,5.30
2022-12-09T14:39:34.008Z,5.37
2022-12-09T14:42:47.462Z,4.63
2022-12-09T14:46:24.686Z,5.60
2022-12-09T14:49:24.360Z,4.80
2022-12-09T14:52:29.042Z,5.97
2022-12-09T14:55:18.092Z,5.50
2022-12-09T14:58:05.915Z,4.90
2022-12-09T15:01:03.884Z,5.20
2022-12-09T15:03:57.747Z,5.20
2022-12-09T15:06:45.285Z,4.90
2022-12-09T15:09:32.790Z,4.97
2022-12-09T15:12:36.015Z,3.87
2022-12-09T15:15:38.480Z,3.97
2022-12-09T15:18:26.976Z,4.83
2022-12-09T15:21:32.819Z,5.67
2022-12-09T15:24:21.590Z,4.73
2022-12-09T15:27:19.870Z,5.07
2022-12-09T15:30:34.684Z,4.73
2022-12-09T15:33:22.216Z,4.47
2022-12-09T15:36:17.040Z,4.53
2022-12-09T15:39:21.996Z,5.10
2022-12-09T15:42:22.055Z,5.70
2022-12-09T15:45:19.440Z,5.07
2022-12-09T15:48:19.265Z,4.33
2022-12-09T15:51:16.075Z,6.33
2022-12-09T15:54:10.763Z,4.63
2022-12-09T15:57:03.156Z,4.37
2022-12-09T15:59:58.431Z,6.97
2022-12-09T16:02:48.138Z,3.93
2022-12-09T16:05:41.809Z,4.67
2022-12-09T16:08:38.682Z,5.60
2022-12-09T16:11:38.930Z,4.10
2022-12-09T16:14:27.006Z,5.93
2022-12-09T16:17:25.915Z,4.77
2022-12-09T16:20:33.165Z,5.93
2022-12-09T16:23:25.521Z,7.40
2022-12-09T16:26:34.300Z,4.93
2022-12-09T16:29:30.810Z,5.87
2022-12-09T16:32:22.783Z,4.87
2022-12-09T16:35:28.360Z,5.73
2022-12-09T16:38:19.460Z,5.70
2022-12-09T16:41:11.230Z,6.10
2022-12-09T16:43:58.963Z,5.77
2022-12-09T16:46:46.803Z,4.73
2022-12-09T16:49:34.794Z,4.63
2022-12-09T16:52:25.475Z,6.43
2022-12-09T16:55:24.936Z,5.27
2022-12-09T16:58:12.443Z,5.13
2022-12-09T17:01:02.969Z,6.83
2022-12-09T17:04:17.901Z,6.27
2022-12-09T17:07:05.335Z,5.23
2022-12-09T17:09:52.790Z,6.83
2022-12-09T17:12:40.433Z,4.50
2022-12-09T17:15:27.945Z,6.20
2022-12-09T17:18:15.540Z,5.73
2022-12-09T17:21:11.436Z,6.30
2022-12-09T17:23:58.940Z,4.50
2022-12-09T17:26:46.525Z,5.43
2022-12-09T17:29:33.981Z,5.60
2022-12-09T17:32:23.775Z,6.17
2022-12-09T17:35:15.939Z,5.20
2022-12-09T17:38:03.769Z,5.83
2022-12-09T17:40:51.501Z,6.73
2022-12-09T17:43:39.346Z,5.07
2022-12-09T17:46:27.037Z,5.63
2022-12-09T17:49:14.918Z,6.53
2022-12-09T17:52:02.450Z,4.30
2022-12-09T17:54:49.954Z,4.97
2022-12-09T17:57:37.545Z,6.97
2022-12-09T18:00:24.980Z,5.87
2022-12-09T18:03:17.908Z,4.03
2022-12-09T18:06:10.210Z,5.83
2022-12-09T18:08:57.824Z,4.73
2022-12-09T18:11:46.522Z,6.20
2022-12-09T18:14:34.011Z,6.43
2022-12-09T18:17:21.501Z,6.07
2022-12-09T18:20:10.231Z,5.33
2022-12-09T18:22:57.810Z,5.83
2022-12-09T18:25:45.291Z,6.33
2022-12-09T18:28:32.762Z,5.30
2022-12-09T18:31:20.418Z,5.33
2022-12-09T18:34:09.289Z,5.77
2022-12-09T18:36:57.300Z,5.00
2022-12-09T18:39:45.051Z,5.73
2022-12-09T18:42:32.470Z,4.93
2022-12-09T18:45:20.878Z,5.47
2022-12-09T18:48:08.414Z,4.80
2022-12-09T18:50:55.879Z,4.67
2022-12-09T18:53:43.623Z,4.60
2022-12-09T18:56:32.256Z,5.97
2022-12-09T18:59:25.103Z,5.30
2022-12-09T19:02:12.792Z,5.53
2022-12-09T19:05:01.536Z,5.60
2022-12-09T19:07:49.034Z,6.97
2022-12-09T19:10:36.625Z,7.50
2022-12-09T19:13:24.099Z,5.47
2022-12-09T19:16:11.621Z,5.17
2022-12-09T19:19:05.354Z,6.17
2022-12-09T19:21:56.933Z,5.73
2022-12-09T19:24:44.410Z,6.33
2022-12-09T19:27:32.140Z,7.23
2022-12-09T19:30:19.685Z,5.43
2022-12-09T19:33:07.169Z,5.97
2022-12-09T19:35:54.643Z,5.97
2022-12-09T19:38:42.614Z,6.17
2022-12-09T19:41:30.111Z,6.17
2022-12-09T19:44:44.301Z,5.73
2022-12-09T19:47:28.080Z,5.70
2022-12-09T19:50:15.649Z,5.20
2022-12-09T19:53:03.140Z,6.47
2022-12-09T19:55:50.660Z,5.40
2022-12-09T19:58:39.699Z,6.53
2022-12-09T20:01:34.381Z,4.77
2022-12-09T20:07:31.743Z,6.17
2022-12-09T20:10:19.220Z,4.13
2022-12-09T20:13:06.690Z,5.63
2022-12-09T20:15:54.490Z,5.03
2022-12-09T20:18:42.941Z,4.97
2022-12-09T20:21:32.455Z,4.93
2022-12-09T20:24:19.876Z,5.70
2022-12-09T20:27:07.353Z,6.53
2022-12-09T20:29:54.809Z,4.87
2022-12-09T20:32:44.149Z,6.67
2022-12-09T20:35:31.914Z,5.20
2022-12-09T20:38:19.445Z,6.67
2022-12-09T20:41:13.395Z,4.77
2022-12-09T20:44:01.081Z,6.50
2022-12-09T20:46:52.025Z,5.53
2022-12-09T20:49:39.568Z,6.00
2022-12-09T20:52:27.150Z,5.57
2022-12-09T20:55:15.500Z,6.60
2022-12-09T20:58:03.214Z,5.73
2022-12-09T21:00:50.937Z,6.13
2022-12-09T21:03:38.851Z,5.10
2022-12-09T21:06:30.299Z,6.13
2022-12-09T21:09:22.334Z,5.33
2022-12-09T21:12:09.780Z,7.27
2022-12-09T21:14:57.225Z,4.13
2022-12-09T21:17:48.458Z,4.93
2022-12-09T21:20:41.454Z,4.53
2022-12-09T21:23:34.306Z,4.97
2022-12-09T21:26:24.919Z,4.87
2022-12-09T21:29:14.530Z,4.60
2022-12-09T21:32:02.224Z,4.47
2022-12-09T21:34:49.855Z,4.00
2022-12-09T21:37:37.335Z,4.70
2022-12-09T21:40:24.874Z,5.13
2022-12-09T21:43:12.294Z,4.47
2022-12-09T21:46:09.901Z,5.27
2022-12-09T21:49:03.585Z,5.20
2022-12-09T21:51:52.295Z,4.40
2022-12-09T21:54:39.755Z,6.10
2022-12-09T21:57:27.604Z,5.07
2022-12-09T22:00:15.629Z,5.03
2022-12-09T22:03:03.098Z,5.73
2022-12-09T22:05:53.854Z,5.77
2022-12-09T22:08:46.734Z,5.57
2022-12-09T22:11:37.411Z,5.07
2022-12-09T22:14:24.944Z,5.00
2022-12-09T22:17:12.405Z,5.87
2022-12-09T22:20:33.148Z,4.77
2022-12-09T22:23:07.240Z,6.27
2022-12-09T22:25:54.933Z,5.03
2022-12-09T22:28:42.695Z,5.57
2022-12-09T22:31:35.559Z,5.33
2022-12-09T22:34:22.993Z,5.00
2022-12-09T22:37:42.000Z,6.20
2022-12-09T22:40:19.484Z,4.50
2022-12-09T22:43:07.179Z,5.97
2022-12-09T22:45:54.769Z,4.53
2022-12-09T22:48:43.141Z,3.90
2022-12-09T22:51:33.493Z,4.53
2022-12-09T22:54:21.660Z,4.03
2022-12-09T22:57:09.174Z,5.17
2022-12-09T22:59:56.654Z,5.27
2022-12-09T23:02:44.278Z,4.93
2022-12-09T23:05:37.011Z,4.83
2022-12-09T23:08:24.475Z,5.50
2022-12-09T23:11:16.534Z,5.67
2022-12-09T23:14:04.626Z,4.27
2022-12-09T23:16:52.214Z,6.07
2022-12-09T23:19:39.868Z,5.77
2022-12-09T23:22:27.947Z,4.87
2022-12-09T23:25:15.979Z,5.60
2022-12-09T23:28:04.828Z,5.13
2022-12-09T23:30:52.305Z,5.27
2022-12-09T23:33:42.137Z,4.50
2022-12-09T23:36:38.539Z,6.20
2022-12-09T23:39:26.096Z,4.53
2022-12-09T23:42:13.526Z,4.97
2022-12-09T23:45:01.009Z,4.97
2022-12-09T23:47:48.425Z,5.00
2022-12-09T23:50:36.126Z,5.90
2022-12-09T23:53:23.639Z,4.57
2022-12-09T23:56:17.202Z,4.57
2022-12-09T23:59:09.884Z,5.13
